Allouez, MI (49805)

8:59 AM EDT on September 05, 2015 (GMT -0400)
Calumet Township North End | | Change Station
CLOSE
Current Station
Personal Weather Station
Location: Calumet Township, MI
Elevation: 1224 ft
Nearby Weather Stations

Elev 1224 ft 47.25 °N, 88.44 °W | Updated 2 minutes ago

Fog
Fog
63.9 °F
Feels Like 63.9 °F
N
0.0
Wind Variable Wind from East

Today
High -- | Low -- °F
--% Chance of Precip.
Yesterday
High -- | Low -- °F
Precip. -- in
7:17 AM 8:26 PM
Waning Gibbous, 49% visible
Pressure 30.05 in
Visibility 0.2 miles
Clouds
Dew Point 64 °F
Humidity 99%
Rainfall 0.00 in
Snow Depth Not available.
UV Not available.
Pollen 2.80 out of 12
Air Quality Not available.
Flu Activity Not available.
METAR KCMX 051253Z AUTO 19006KT 1/4SM FG VV001 17/17 A3005 RMK AO2 SLP175 T01720167 TSNO
Pressure 30.05 in
Visibility 0.2 miles
Clouds
Dew Point 64 °F
Humidity 99%
Rainfall 0.00 in
Snow Depth Not available.
UV Not available.
Pollen 2.80 out of 12
Air Quality Not available.
Flu Activity Not available.
METAR KCMX 051253Z AUTO 19006KT 1/4SM FG VV001 17/17 A3005 RMK AO2 SLP175 T01720167 TSNO

10-Day Weather Forecast

×

Almanac

Astronomy

Sep. 05, 2015 Rise Set
Actual Time
Civil Twilight
Nautical Twilight
Astronomical Twilight
Moon
Length of Visible Light
Length of Day
Tomorrow will be .
, % of the Moon is Illuminated

Today's Extremes

State Highs State Lows

Community

WunderPhotos

Upload Photos

1,852,454 photos uploaded!

WunderBlogs® & News

Nearby

Air Quality

  Air Quality AQ Index Pollutant
Not available.

Snow Depth

Station Depth Elevation

Earthquake Activity

City Distance Mag. Time & Date
Minimum magnitude displayed is 2.5.

Coastal Water Temperatures

Place Temperature

Stations

Nearby Weather Stations

Station Location Temp. Windchill Dew Point Humidity Wind Precip. Elev Updated Type